Time;durP1;ratioP1;P1;durP2;ratioP2;P2;SDS_P1;SDS_P2;PMS_P1;PMS_P2;Temp;Humidity;BMP_temperature;BMP_pressure;BME280_temperature;BME280_humidity;BME280_pressure;Samples;Min_cycle;Max_cycle;Signal;HPM_P1;HPM_P2
2023/10/19 00:00:44;;;;;;;6.40;5.73;;;;;;;1.22;100.00;100973.72;4919857;29;20275;-66
2023/10/19 00:03:10;;;;;;;7.00;4.80;;;;;;;1.29;100.00;100982.03;4919488;29;20268;-64
2023/10/19 00:05:37;;;;;;;7.53;5.43;;;;;;;1.17;100.00;100964.47;4919542;29;20296;-65
2023/10/19 00:10:42;;;;;;;7.30;5.03;;;;;;;1.15;100.00;100975.03;4919327;29;20331;-63
2023/10/19 00:13:09;;;;;;;7.50;4.10;;;;;;;0.99;100.00;100949.88;4919525;29;20275;-64
2023/10/19 00:15:39;;;;;;;4.47;3.20;;;;;;;1.10;100.00;100957.91;4919510;29;20272;-66
2023/10/19 00:18:24;;;;;;;6.90;4.00;;;;;;;1.15;100.00;100961.91;4919494;29;20406;-64
2023/10/19 00:20:52;;;;;;;6.10;4.10;;;;;;;0.87;100.00;100922.66;4919988;29;20279;-64
2023/10/19 00:23:28;;;;;;;8.40;4.38;;;;;;;1.22;100.00;100980.75;4922730;29;20763;-63
2023/10/19 00:25:56;;;;;;;6.63;3.47;;;;;;;1.25;100.00;100977.94;4924805;29;20091;-64
2023/10/19 00:28:22;;;;;;;4.97;3.57;;;;;;;1.28;100.00;100980.34;4923345;29;20335;-65
2023/10/19 00:30:51;;;;;;;4.00;3.27;;;;;;;1.29;100.00;100982.03;4921613;29;20352;-63
2023/10/19 00:33:18;;;;;;;;;;;;;;;1.32;100.00;100983.63;4919555;29;20287;-64
2023/10/19 00:35:47;;;;;;;6.07;3.93;;;;;;;1.22;100.00;100968.47;4918776;29;19918;-65
2023/10/19 00:43:42;;;;;;;4.70;3.30;;;;;;;1.35;100.00;100981.63;4919047;29;20280;-63
2023/10/19 00:48:58;;;;;;;5.03;3.70;;;;;;;1.15;100.00;100951.41;4918896;29;20732;-63
2023/10/19 00:54:08;;;;;;;5.83;3.10;;;;;;;1.36;100.00;100985.94;4918640;29;20284;-64
2023/10/19 00:56:35;;;;;;;6.40;3.80;;;;;;;0.95;100.00;100915.16;4918518;29;20288;-63
2023/10/19 01:01:44;;;;;;;9.13;3.53;;;;;;;1.14;100.00;100954.16;4917813;29;20362;-64
2023/10/19 01:04:14;;;;;;;7.23;3.47;;;;;;;1.37;100.00;100986.78;4918564;29;20055;-64
2023/10/19 01:07:00;;;;;;;5.90;3.50;;;;;;;1.25;100.00;100972.69;4918725;29;20332;-65
2023/10/19 01:09:28;;;;;;;6.73;3.40;;;;;;;1.38;100.00;100988.47;4918510;29;20718;-64
2023/10/19 01:11:54;;;;;;;4.13;3.47;;;;;;;1.27;100.00;100965.56;4918351;29;20290;-64
2023/10/19 01:14:21;;;;;;;6.70;3.70;;;;;;;1.42;100.00;100990.78;4918254;29;20648;-63
2023/10/19 01:16:49;;;;;;;5.17;4.13;;;;;;;1.29;100.00;100963.69;4918240;29;20484;-63
2023/10/19 01:19:18;;;;;;;5.10;3.57;;;;;;;1.46;100.00;100980.97;4918218;29;20276;-65
2023/10/19 01:21:52;;;;;;;4.30;3.30;;;;;;;1.51;100.00;100997.25;4918417;29;20276;-64
2023/10/19 01:24:33;;;;;;;4.53;3.20;;;;;;;1.54;100.00;100995.28;4918157;29;20048;-66
2023/10/19 01:27:00;;;;;;;8.13;3.20;;;;;;;1.44;100.00;100982.81;4916989;29;20300;-64
2023/10/19 01:29:28;;;;;;;5.40;3.17;;;;;;;1.51;100.00;100997.25;4918036;29;20698;-62
2023/10/19 01:32:04;;;;;;;6.57;3.05;;;;;;;1.32;100.00;100970.50;4917892;29;20268;-65
2023/10/19 01:34:30;;;;;;;7.57;3.50;;;;;;;1.28;100.00;100977.72;4918655;29;20404;-62
2023/10/19 01:36:56;;;;;;;3.77;3.20;;;;;;;1.39;100.00;100992.78;4918203;29;20265;-64
2023/10/19 01:39:21;;;;;;;5.20;3.30;;;;;;;1.43;100.00;100995.09;4919220;29;20079;-63
2023/10/19 01:41:50;;;;;;;6.73;4.33;;;;;;;1.36;100.00;100972.00;4918037;29;20173;-64
2023/10/19 01:44:16;;;;;;;4.90;3.50;;;;;;;1.41;100.00;100989.13;4917754;29;20044;-63
2023/10/19 01:46:45;;;;;;;3.90;3.47;;;;;;;1.51;100.00;100995.47;4918364;29;20791;-62
2023/10/19 01:49:11;;;;;;;5.73;3.40;;;;;;;1.44;100.00;100975.78;4917917;29;20307;-64
2023/10/19 01:51:39;;;;;;;5.60;3.27;;;;;;;1.52;100.00;100980.56;4917899;29;20292;-63
2023/10/19 01:54:07;;;;;;;6.95;3.53;;;;;;;1.55;100.00;100975.13;4917755;29;20074;-64
2023/10/19 01:56:35;;;;;;;7.87;4.33;;;;;;;1.52;100.00;100980.56;4917543;29;20051;-63
2023/10/19 01:59:04;;;;;;;8.52;4.35;;;;;;;1.54;100.00;100974.28;4917282;29;20268;-65
2023/10/19 02:01:32;;;;;;;4.47;3.63;;;;;;;1.54;100.00;100979.53;4925471;29;20504;-63
2023/10/19 02:04:03;;;;;;;7.37;3.80;;;;;;;1.41;100.00;100969.91;4927309;29;20186;-64
2023/10/19 02:09:08;;;;;;;5.30;3.60;;;;;;;1.46;100.00;100992.31;4918481;29;20268;-64
2023/10/19 02:11:38;;;;;;;6.83;4.20;;;;;;;1.33;100.00;100970.41;4917402;29;20274;-65
2023/10/19 02:14:13;;;;;;;6.07;4.07;;;;;;;1.34;100.00;100972.09;4915986;29;20276;-64
2023/10/19 02:16:39;;;;;;;6.13;3.90;;;;;;;1.48;100.00;100989.59;4917706;29;20272;-66
2023/10/19 02:19:05;;;;;;;6.73;4.03;;;;;;;1.47;100.00;100987.91;4917179;29;20291;-64
2023/10/19 02:21:30;;;;;;;5.37;3.53;;;;;;;1.41;100.00;100989.13;4917298;29;20745;-65
2023/10/19 02:23:59;;;;;;;4.43;3.50;;;;;;;1.45;100.00;101001.13;4922264;29;20134;-65
2023/10/19 02:26:30;;;;;;;4.70;3.60;;;;;;;1.41;100.00;100978.63;4926502;29;20032;-63
2023/10/19 02:28:58;;;;;;;4.93;3.60;;;;;;;1.58;100.00;100995.06;4927311;29;20043;-63
2023/10/19 02:31:24;;;;;;;4.57;4.00;;;;;;;1.57;100.00;100983.72;4926074;29;20272;-64
2023/10/19 02:34:00;;;;;;;6.77;3.40;;;;;;;1.53;100.00;100977.00;4917493;29;20288;-63
2023/10/19 02:36:30;;;;;;;5.23;3.27;;;;;;;1.67;100.00;100984.81;4916895;29;20744;-65
2023/10/19 02:39:00;;;;;;;5.33;3.37;;;;;;;1.65;100.00;100988.47;4916963;29;20837;-64
2023/10/19 02:41:26;;;;;;;4.77;3.50;;;;;;;1.57;100.00;100981.09;4916901;29;20279;-64
2023/10/19 02:44:09;;;;;;;7.87;3.50;;;;;;;1.44;100.00;100983.66;4916678;29;20296;-64
2023/10/19 02:46:38;;;;;;;6.20;3.77;;;;;;;1.60;100.00;100998.44;4916829;29;20292;-63
2023/10/19 02:49:11;;;;;;;5.00;3.47;;;;;;;1.53;100.00;101001.47;4915671;29;20744;-65
2023/10/19 02:51:38;;;;;;;5.10;3.70;;;;;;;1.32;100.00;100987.09;4916613;29;20288;-65
2023/10/19 02:54:06;;;;;;;6.87;4.57;;;;;;;1.36;100.00;100999.06;4916652;29;20287;-65
2023/10/19 02:56:31;;;;;;;7.17;4.30;;;;;;;1.43;100.00;101002.13;4916455;29;20364;-63
2023/10/19 02:59:06;;;;;;;5.33;4.27;;;;;;;1.45;100.00;101009.00;4916406;29;20359;-64
2023/10/19 03:01:34;;;;;;;4.47;3.67;;;;;;;1.46;100.00;101008.06;4915303;29;20035;-63
2023/10/19 03:04:01;;;;;;;5.50;3.88;;;;;;;1.45;100.00;101011.63;4916669;29;20299;-63
2023/10/19 03:06:35;;;;;;;5.63;4.13;;;;;;;1.40;100.00;101000.56;4916542;29;20389;-62
2023/10/19 03:11:55;;;;;;;5.97;4.40;;;;;;;1.32;100.00;101015.94;4916254;29;20369;-63
2023/10/19 03:14:24;;;;;;;7.47;5.00;;;;;;;1.34;100.00;101008.81;4916431;29;20275;-64
2023/10/19 03:16:51;;;;;;;5.10;4.23;;;;;;;0.92;100.00;100931.91;4916295;29;20275;-63
2023/10/19 03:19:16;;;;;;;7.77;5.27;;;;;;;1.17;100.00;100981.06;4916237;29;20276;-65
2023/10/19 03:21:48;;;;;;;5.43;4.23;;;;;;;1.24;100.00;100986.75;4918756;29;20279;-64
2023/10/19 03:24:23;;;;;;;4.90;4.20;;;;;;;1.34;100.00;100997.50;4925840;29;20044;-63
2023/10/19 03:26:50;;;;;;;7.80;5.57;;;;;;;1.34;100.00;100985.22;4920855;29;20273;-63
2023/10/19 03:29:22;;;;;;;5.00;4.13;;;;;;;1.27;100.00;100969.97;4916346;29;20268;-63
2023/10/19 03:31:48;;;;;;;8.90;4.83;;;;;;;1.51;100.00;101010.38;4915440;29;20276;-66
2023/10/19 03:34:16;;;;;;;8.17;4.77;;;;;;;1.33;100.00;100983.53;4916269;29;20799;-65
2023/10/19 03:36:42;;;;;;;9.50;4.97;;;;;;;1.46;100.00;101015.94;4916031;29;20048;-63
2023/10/19 03:39:12;;;;;;;10.37;4.80;;;;;;;1.41;100.00;101015.34;4916035;29;20535;-64
2023/10/19 03:41:41;;;;;;;6.70;4.33;;;;;;;1.39;100.00;101021.66;4916526;29;20496;-65
2023/10/19 03:44:49;;;;;;;5.53;4.47;;;;;;;1.29;100.00;101005.66;4914647;29;20291;-65
2023/10/19 03:47:19;;;;;;;5.73;4.73;;;;;;;1.30;100.00;101011.75;4915391;29;20292;-65
2023/10/19 03:49:40;;;;;;;7.07;5.00;;;;;;;1.39;100.00;101022.50;4915981;29;20277;-64
2023/10/19 03:54:40;;;;;;;6.90;4.97;;;;;;;1.38;100.00;101022.59;4919329;29;20406;-65
2023/10/19 03:57:11;;;;;;;6.50;4.20;;;;;;;1.41;100.00;101004.03;4919386;29;20276;-63
2023/10/19 03:59:38;;;;;;;7.67;4.80;;;;;;;1.59;100.00;101033.50;4917993;29;20414;-63
2023/10/19 04:02:12;;;;;;;6.10;4.77;;;;;;;1.60;100.00;101032.56;4915524;29;20320;-63
2023/10/19 04:04:43;;;;;;;8.97;5.57;;;;;;;1.52;100.00;101033.91;4915718;29;20387;-63
2023/10/19 04:07:25;;;;;;;9.60;4.97;;;;;;;1.45;100.00;101024.75;4915495;29;20272;-62
2023/10/19 04:12:36;;;;;;;7.67;5.10;;;;;;;1.41;100.00;101014.50;4915671;29;20918;-67
2023/10/19 04:17:36;;;;;;;7.50;5.03;;;;;;;1.42;100.00;101019.66;4915769;29;20319;-65
2023/10/19 04:20:19;;;;;;;6.67;4.33;;;;;;;1.55;100.00;101032.88;4915702;29;20758;-65
2023/10/19 04:22:47;;;;;;;4.87;4.37;;;;;;;1.69;100.00;101050.34;4915621;29;20047;-63
2023/10/19 04:25:15;;;;;;;8.07;4.57;;;;;;;1.58;100.00;101032.66;4908044;29;20303;-64
2023/10/19 04:27:43;;;;;;;5.20;4.40;;;;;;;1.65;100.00;101044.44;4913832;29;20288;-64
2023/10/19 04:30:15;;;;;;;7.53;5.17;;;;;;;1.73;100.00;101049.19;4915832;29;20049;-64
2023/10/19 04:32:43;;;;;;;8.00;5.10;;;;;;;1.61;100.00;101029.84;4917028;29;20277;-66
2023/10/19 04:35:09;;;;;;;7.67;4.40;;;;;;;1.71;100.00;101043.22;4932794;29;20276;-65
2023/10/19 04:37:35;;;;;;;5.80;4.27;;;;;;;1.32;100.00;100973.97;4919191;29;20280;-64
2023/10/19 04:40:02;;;;;;;7.70;4.57;;;;;;;1.43;100.00;101002.97;4929250;29;20280;-65
2023/10/19 04:42:32;;;;;;;7.90;4.17;;;;;;;1.67;100.00;101052.22;4940488;29;20271;-65
2023/10/19 04:44:59;;;;;;;6.17;4.53;;;;;;;1.54;100.00;101046.94;4941616;29;20311;-67
2023/10/19 04:47:24;;;;;;;4.30;3.87;;;;;;;1.54;100.00;101057.44;4939910;29;20271;-69
2023/10/19 04:49:53;;;;;;;6.00;4.80;;;;;;;1.49;100.00;101060.34;4925824;29;20749;-65
2023/10/19 04:52:18;;;;;;;5.45;4.22;;;;;;;1.52;100.00;101070.66;4904613;29;20448;-66
2023/10/19 04:54:44;;;;;;;5.90;4.63;;;;;;;1.23;100.00;101027.03;4920220;29;20040;-64
2023/10/19 04:57:10;;;;;;;8.03;5.07;;;;;;;1.46;100.00;101080.72;4917829;29;20078;-65
2023/10/19 04:59:36;;;;;;;7.57;4.47;;;;;;;1.48;100.00;101073.56;4918944;29;20095;-65
2023/10/19 05:02:02;;;;;;;7.10;4.70;;;;;;;1.54;100.00;101067.94;4919539;29;20276;-65
2023/10/19 05:04:29;;;;;;;5.53;4.63;;;;;;;1.43;100.00;101047.59;4909623;29;20032;-63
2023/10/19 05:06:55;;;;;;;6.13;4.47;;;;;;;1.49;100.00;101054.25;4900082;29;20273;-65
2023/10/19 05:09:21;;;;;;;6.53;4.87;;;;;;;1.61;100.00;101074.47;4899943;29;20281;-65
2023/10/19 05:11:48;;;;;;;6.57;4.83;;;;;;;1.66;100.00;101055.78;4900030;29;20360;-65
2023/10/19 05:14:14;;;;;;;6.53;5.37;;;;;;;1.72;100.00;101072.00;4899762;29;20068;-67
2023/10/19 05:16:40;;;;;;;7.50;4.93;;;;;;;1.72;100.00;101066.75;4899194;29;20777;-66
2023/10/19 05:19:06;;;;;;;6.73;5.10;;;;;;;1.60;100.00;101061.44;4898323;29;20281;-65
2023/10/19 05:21:33;;;;;;;6.57;5.10;;;;;;;1.75;100.00;101082.31;4907503;29;20355;-64
2023/10/19 05:24:00;;;;;;;5.83;5.03;;;;;;;1.73;100.00;101070.22;4894579;29;20092;-66
2023/10/19 05:26:27;;;;;;;8.60;5.07;;;;;;;1.90;100.00;101085.72;4907915;29;20280;-66
2023/10/19 05:28:54;;;;;;;8.60;5.17;;;;;;;1.91;100.00;101076.06;4908936;29;20283;-67
2023/10/19 05:31:20;;;;;;;8.03;5.17;;;;;;;1.79;100.00;101052.31;4900645;29;20319;-66
2023/10/19 05:33:49;;;;;;;6.27;4.73;;;;;;;2.05;100.00;101090.00;4898823;29;20284;-64
2023/10/19 05:36:15;;;;;;;5.57;4.85;;;;;;;1.72;100.00;101031.75;4898571;29;20273;-65
2023/10/19 05:38:41;;;;;;;8.73;5.53;;;;;;;1.89;100.00;101059.56;4897712;29;20059;-65
2023/10/19 05:41:07;;;;;;;5.63;4.50;;;;;;;2.00;100.00;101085.97;4880751;29;20434;-64
2023/10/19 05:43:34;;;;;;;6.30;4.37;;;;;;;1.85;100.00;101072.06;4896427;29;20036;-65
2023/10/19 05:46:00;;;;;;;5.13;4.33;;;;;;;1.87;100.00;101080.69;4897671;29;20296;-69
2023/10/19 05:48:26;;;;;;;7.37;4.80;;;;;;;1.90;100.00;101096.25;4896936;29;20360;-65
2023/10/19 05:50:52;;;;;;;8.97;5.10;;;;;;;1.91;100.00;101091.81;4896606;29;20404;-67
2023/10/19 05:53:22;;;;;;;7.43;5.57;;;;;;;1.85;100.00;101078.16;4897807;29;20040;-64
2023/10/19 05:55:49;;;;;;;8.10;5.80;;;;;;;1.92;100.00;101081.22;4897716;29;20040;-65
2023/10/19 05:58:15;;;;;;;9.80;5.97;;;;;;;1.99;100.00;101093.00;4898079;29;20811;-65
2023/10/19 06:00:41;;;;;;;7.00;5.27;;;;;;;2.14;100.00;101107.78;4897506;29;20281;-68
2023/10/19 06:03:07;;;;;;;14.47;7.57;;;;;;;2.26;100.00;101102.66;4897453;29;20566;-66
2023/10/19 06:05:33;;;;;;;12.13;6.67;;;;;;;2.25;100.00;101107.06;4897371;29;20032;-67
2023/10/19 06:07:59;;;;;;;5.67;4.80;;;;;;;1.30;100.00;100960.09;4896222;29;20127;-64
2023/10/19 06:10:28;;;;;;;6.40;4.73;;;;;;;2.11;100.00;101100.09;4897924;29;20888;-65
2023/10/19 06:12:54;;;;;;;6.43;4.78;;;;;;;2.22;100.00;101109.06;4897484;29;20273;-68
2023/10/19 06:15:23;;;;;;;6.97;4.40;;;;;;;2.11;100.00;101089.59;4897152;29;20036;-64
2023/10/19 06:17:49;;;;;;;;;;;;;;;2.36;100.00;101119.53;4898144;29;20146;-66
2023/10/19 06:20:24;;;;;;;7.60;4.30;;;;;;;2.39;100.00;101119.31;4897836;29;20006;-67
2023/10/19 06:22:52;;;;;;;5.67;4.50;;;;;;;2.31;100.00;101100.56;4897328;29;20412;-65
2023/10/19 06:25:21;;;;;;;7.97;4.87;;;;;;;2.40;100.00;101108.72;4896403;29;20384;-67
2023/10/19 06:27:47;;;;;;;6.37;4.77;;;;;;;2.48;100.00;101134.47;4897482;29;20785;-64
2023/10/19 06:30:18;;;;;;;8.40;4.70;;;;;;;2.53;100.00;101132.38;4898187;29;20364;-65
2023/10/19 06:32:51;;;;;;;5.90;4.53;;;;;;;2.54;100.00;101130.59;4898076;29;20426;-68
2023/10/19 06:35:18;;;;;;;7.47;4.53;;;;;;;2.55;100.00;101130.50;4898155;29;20359;-67
2023/10/19 06:37:44;;;;;;;8.67;4.97;;;;;;;2.67;100.00;101129.69;4897195;29;20870;-66
2023/10/19 06:40:11;;;;;;;8.10;5.50;;;;;;;2.77;100.00;101143.06;4903267;29;20265;-65
2023/10/19 06:42:40;;;;;;;7.63;4.50;;;;;;;2.78;100.00;101142.09;4904580;29;20336;-63
2023/10/19 06:45:07;;;;;;;10.60;5.70;;;;;;;2.60;100.00;101114.41;4903158;29;20695;-65
2023/10/19 06:47:37;;;;;;;7.87;5.37;;;;;;;2.69;100.00;101133.06;4903151;29;20069;-66
2023/10/19 06:50:07;;;;;;;8.10;5.00;;;;;;;2.31;100.00;101071.66;4897612;29;20304;-65
2023/10/19 06:52:35;;;;;;;6.53;4.60;;;;;;;2.77;100.00;101154.41;4897447;29;20296;-65
2023/10/19 06:55:04;;;;;;;7.90;4.68;;;;;;;2.64;100.00;101135.16;4897574;29;20314;-67
2023/10/19 06:57:32;;;;;;;10.27;5.20;;;;;;;2.82;100.00;101156.72;4897488;29;20561;-63
2023/10/19 06:59:59;;;;;;;7.40;5.25;;;;;;;2.76;100.00;101142.22;4896569;29;20123;-66
2023/10/19 07:02:26;;;;;;;6.33;4.83;;;;;;;2.90;100.00;101153.59;4897245;29;20055;-64
2023/10/19 07:04:52;;;;;;;8.77;5.13;;;;;;;2.96;100.00;101161.91;4897073;29;20292;-65
2023/10/19 07:07:18;;;;;;;9.60;6.30;;;;;;;2.79;100.00;101139.38;4900330;29;20674;-66
2023/10/19 07:09:43;;;;;;;10.90;4.83;;;;;;;2.52;100.00;101099.16;4904992;29;20036;-67
2023/10/19 07:12:09;;;;;;;10.67;5.77;;;;;;;2.84;100.00;101151.38;4908175;29;20036;-66
2023/10/19 07:14:34;;;;;;;10.00;5.60;;;;;;;2.91;100.00;101161.41;4903732;29;20445;-65
2023/10/19 07:17:00;;;;;;;11.77;5.80;;;;;;;2.95;100.00;101154.13;4896653;29;20523;-65
2023/10/19 07:19:26;;;;;;;8.47;6.00;;;;;;;3.11;100.00;101171.38;4898559;29;20040;-66
2023/10/19 07:21:57;;;;;;;8.73;6.10;;;;;;;3.15;100.00;101174.66;4899617;29;20324;-66
2023/10/19 07:24:24;;;;;;;6.97;4.90;;;;;;;3.21;100.00;101171.63;4899619;29;20071;-67
2023/10/19 07:27:04;;;;;;;8.13;5.67;;;;;;;3.16;100.00;101147.38;4898509;29;20277;-64
2023/10/19 07:29:32;;;;;;;8.63;5.43;;;;;;;3.08;100.00;101142.66;4903285;29;20276;-64
2023/10/19 07:31:58;;;;;;;9.03;6.17;;;;;;;3.19;100.00;101168.25;4898348;29;20277;-66
2023/10/19 07:34:28;;;;;;;10.70;6.37;;;;;;;3.25;100.00;101180.97;4896891;29;20631;-68
2023/10/19 07:36:54;;;;;;;10.43;6.03;;;;;;;3.25;100.00;101167.81;4900949;29;20040;-65
2023/10/19 07:39:22;;;;;;;7.57;5.60;;;;;;;3.22;100.00;101167.19;4899553;29;20281;-67
2023/10/19 07:41:48;;;;;;;8.60;5.87;;;;;;;3.28;100.00;101172.03;4897146;29;20261;-66
2023/10/19 07:44:13;;;;;;;6.57;5.40;;;;;;;3.40;100.00;101182.53;4895342;29;20860;-66
2023/10/19 07:46:39;;;;;;;8.20;5.40;;;;;;;3.43;100.00;101187.59;4895528;29;20059;-67
2023/10/19 07:49:05;;;;;;;12.67;5.80;;;;;;;3.44;100.00;101175.28;4896743;29;20520;-64
2023/10/19 07:51:32;;;;;;;7.10;4.57;;;;;;;3.11;100.00;101117.91;4896841;29;20209;-70
2023/10/19 07:53:58;;;;;;;7.37;4.73;;;;;;;3.22;100.00;101138.25;4895912;29;20056;-71
2023/10/19 07:56:24;;;;;;;9.47;6.13;;;;;;;3.42;100.00;101187.69;4896876;29;20269;-69
2023/10/19 07:58:50;;;;;;;6.77;5.23;;;;;;;3.24;100.00;101168.78;4896568;29;20416;-67
2023/10/19 08:01:16;;;;;;;6.50;3.97;;;;;;;3.33;100.00;101181.28;4896855;29;20416;-69
2023/10/19 08:03:41;;;;;;;7.17;4.67;;;;;;;3.29;100.00;101187.72;4896956;29;20281;-65
2023/10/19 08:06:07;;;;;;;5.90;4.20;;;;;;;3.29;100.00;101190.34;4896453;29;20119;-66
2023/10/19 08:08:35;;;;;;;6.17;3.93;;;;;;;3.25;100.00;101194.16;4895348;29;20524;-66
2023/10/19 08:11:01;;;;;;;5.55;3.60;;;;;;;3.18;100.00;101198.16;4896887;29;20064;-68
2023/10/19 08:13:27;;;;;;;8.83;4.17;;;;;;;3.20;100.00;101192.78;4900625;29;20547;-64
2023/10/19 08:15:53;;;;;;;7.40;3.80;;;;;;;3.25;100.00;101174.88;4900490;29;20036;-65
2023/10/19 08:18:20;;;;;;;6.63;4.73;;;;;;;3.49;100.00;101204.78;4900255;29;20279;-64
2023/10/19 08:20:45;;;;;;;5.13;4.10;;;;;;;3.46;100.00;101188.31;4900642;29;20092;-64
2023/10/19 08:23:13;;;;;;;4.13;3.70;;;;;;;3.53;100.00;101197.50;4901708;29;20260;-65
2023/10/19 08:25:39;;;;;;;3.70;3.20;;;;;;;3.68;100.00;101196.41;4900988;29;20131;-65
2023/10/19 08:28:06;;;;;;;6.47;3.80;;;;;;;3.94;100.00;101202.50;4901254;29;20653;-64
2023/10/19 08:30:33;;;;;;;4.27;3.87;;;;;;;4.15;100.00;101190.41;4900913;29;20809;-64
2023/10/19 08:32:58;;;;;;;6.50;2.93;;;;;;;4.29;100.00;101205.22;4900837;29;20312;-66
2023/10/19 08:35:24;;;;;;;5.03;3.63;;;;;;;4.14;100.00;101178.19;4901506;29;20726;-64
2023/10/19 08:37:52;;;;;;;3.60;3.30;;;;;;;3.92;100.00;101143.78;4899651;29;20056;-64
2023/10/19 08:40:19;;;;;;;4.37;3.17;;;;;;;4.28;100.00;101214.09;4900408;29;20751;-67
2023/10/19 08:42:46;;;;;;;4.73;3.53;;;;;;;4.22;100.00;101212.75;4900678;29;20265;-66
2023/10/19 08:45:16;;;;;;;5.30;3.07;;;;;;;4.29;100.00;101205.22;4900836;29;20788;-67
2023/10/19 08:48:00;;;;;;;3.10;2.70;;;;;;;4.20;100.00;101205.91;4898948;29;20336;-64
2023/10/19 08:50:29;;;;;;;4.80;3.43;;;;;;;4.08;100.00;101225.25;4899823;29;20339;-62
2023/10/19 08:52:59;;;;;;;3.67;3.00;;;;;;;3.95;100.00;101207.66;4899764;29;20288;-68
2023/10/19 08:55:26;;;;;;;6.60;3.43;;;;;;;4.13;100.00;101225.75;4899767;29;20431;-65
2023/10/19 08:57:52;;;;;;;3.30;2.97;;;;;;;3.71;100.00;101138.25;4898315;29;20289;-66
2023/10/19 09:00:19;;;;;;;4.03;3.33;;;;;;;4.27;100.00;101218.50;4900063;29;20273;-66
2023/10/19 09:02:46;;;;;;;4.03;3.10;;;;;;;4.23;100.00;101205.66;4899766;29;20389;-63
2023/10/19 09:05:27;;;;;;;3.47;2.83;;;;;;;4.17;100.00;101209.59;4899737;29;20907;-64
2023/10/19 09:07:56;;;;;;;3.97;2.57;;;;;;;4.10;100.00;101223.34;4899459;29;20469;-65
2023/10/19 09:10:28;;;;;;;3.73;2.27;;;;;;;3.82;100.00;101172.59;4899476;29;20376;-65
2023/10/19 09:13:02;;;;;;;4.00;2.60;;;;;;;4.10;100.00;101223.34;4899441;29;20265;-66
2023/10/19 09:15:32;;;;;;;3.77;3.07;;;;;;;3.98;100.00;101199.53;4899688;29;20277;-63
2023/10/19 09:18:16;;;;;;;5.67;4.10;;;;;;;4.14;100.00;101219.53;4899180;29;20333;-64
2023/10/19 09:20:52;;;;;;;6.10;3.10;;;;;;;4.26;100.00;101237.09;4899200;29;20717;-63
2023/10/19 09:23:22;;;;;;;5.00;3.47;;;;;;;4.18;100.00;101215.72;4898219;29;20281;-64
2023/10/19 09:25:49;;;;;;;4.27;3.23;;;;;;;4.13;100.00;101229.22;4899058;29;20800;-67
2023/10/19 09:28:15;;;;;;;3.77;2.63;;;;;;;4.10;100.00;101218.91;4899370;29;20269;-66
2023/10/19 09:30:43;;;;;;;4.23;2.53;;;;;;;4.03;100.00;101218.47;4899250;29;20329;-64
2023/10/19 09:33:09;;;;;;;3.77;2.40;;;;;;;4.19;100.00;101246.38;4898962;29;20037;-66
2023/10/19 09:35:37;;;;;;;3.10;2.60;;;;;;;4.15;100.00;101229.13;4899001;29;20372;-67
2023/10/19 09:38:06;;;;;;;3.25;2.40;;;;;;;4.26;100.00;101247.63;4899259;29;20287;-65
2023/10/19 09:40:33;;;;;;;3.55;2.42;;;;;;;4.27;100.00;101246.69;4898994;29;20445;-65
2023/10/19 09:43:00;;;;;;;3.03;2.20;;;;;;;4.26;100.00;101239.72;4899172;29;20092;-69
2023/10/19 09:45:30;;;;;;;3.20;2.90;;;;;;;3.98;100.00;101225.88;4899043;29;20729;-64
2023/10/19 09:47:56;;;;;;;3.13;2.67;;;;;;;4.09;100.00;101237.47;4898464;29;20752;-66
2023/10/19 09:50:23;;;;;;;7.00;2.97;;;;;;;4.12;100.00;101237.25;4900205;29;20390;-66
2023/10/19 09:52:51;;;;;;;2.17;1.80;;;;;;;4.11;100.00;101256.66;4899824;29;20324;-67
2023/10/19 09:55:31;;;;;;;3.10;2.47;;;;;;;3.93;100.00;101224.53;4900692;29;20312;-65
2023/10/19 09:58:15;;;;;;;3.20;2.57;;;;;;;4.10;100.00;101250.53;4898321;29;20273;-62
2023/10/19 10:00:45;;;;;;;3.33;2.23;;;;;;;4.04;100.00;101246.50;4898954;29;20324;-64
2023/10/19 10:03:42;;;;;;;2.80;2.37;;;;;;;4.18;100.00;101252.63;4898693;29;20992;-66
2023/10/19 10:06:09;;;;;;;4.13;2.67;;;;;;;4.23;100.00;101259.25;4898525;29;20295;-65
2023/10/19 10:08:45;;;;;;;4.23;3.07;;;;;;;4.34;100.00;101255.84;4898264;29;20273;-67
2023/10/19 10:11:26;;;;;;;3.57;2.33;;;;;;;4.39;99.67;101248.44;4898685;29;20291;-67
2023/10/19 10:13:53;;;;;;;4.90;3.20;;;;;;;4.39;99.97;101245.81;4898506;29;20435;-68
2023/10/19 10:16:27;;;;;;;4.03;2.40;;;;;;;4.41;100.00;101257.09;4898397;29;20328;-66
2023/10/19 10:19:01;;;;;;;2.40;2.20;;;;;;;4.47;100.00;101256.63;4896905;29;20645;-65
2023/10/19 10:21:29;;;;;;;3.30;2.10;;;;;;;4.46;100.00;101227.75;4898504;29;20281;-66
2023/10/19 10:24:02;;;;;;;3.90;2.72;;;;;;;4.76;100.00;101251.88;4897902;29;20287;-66
2023/10/19 10:26:31;;;;;;;4.43;3.33;;;;;;;4.72;98.83;101246.94;4900587;29;20047;-65
2023/10/19 10:29:22;;;;;;;2.60;2.20;;;;;;;4.75;99.21;101263.38;4899478;29;20273;-66
2023/10/19 10:31:49;;;;;;;3.10;2.47;;;;;;;4.60;99.64;101253.94;4898138;29;20064;-65
2023/10/19 10:34:33;;;;;;;4.13;2.30;;;;;;;4.62;100.00;101263.41;4898623;29;20269;-67
2023/10/19 10:37:10;;;;;;;4.53;1.93;;;;;;;4.56;100.00;101239.28;4897951;29;20257;-66
2023/10/19 10:39:39;;;;;;;3.10;2.17;;;;;;;4.64;100.00;101245.72;4898195;29;20273;-65
2023/10/19 10:42:07;;;;;;;2.53;2.33;;;;;;;4.66;100.00;101266.69;4897856;29;20277;-68
2023/10/19 10:44:40;;;;;;;4.05;2.67;;;;;;;4.57;100.00;101247.09;4896621;29;20047;-70
2023/10/19 10:47:09;;;;;;;1.73;1.63;;;;;;;4.70;99.60;101264.69;4897939;29;20076;-66
2023/10/19 10:49:55;;;;;;;2.95;2.65;;;;;;;4.62;98.33;101242.31;4898082;29;20336;-67
2023/10/19 10:52:34;;;;;;;2.07;1.83;;;;;;;4.70;96.43;101254.97;4898025;29;20059;-67
2023/10/19 10:55:13;;;;;;;;;;;;;;;4.89;96.41;101267.63;4898450;29;20277;-67
2023/10/19 10:57:39;;;;;;;;;;;;;;;4.83;94.63;101265.44;4898111;29;20314;-64
2023/10/19 11:00:09;;;;;;;4.70;2.40;;;;;;;4.55;95.78;101246.38;4897571;29;19926;-67
2023/10/19 11:02:36;;;;;;;2.13;1.87;;;;;;;4.55;95.33;101246.38;4897541;29;20776;-65
2023/10/19 11:05:03;;;;;;;3.53;2.00;;;;;;;4.76;95.91;101262.44;4897242;29;20356;-64
2023/10/19 11:07:30;;;;;;;2.63;2.33;;;;;;;4.67;94.73;101239.38;4896479;29;20280;-67
2023/10/19 11:09:56;;;;;;;3.77;1.73;;;;;;;4.71;93.89;101240.81;4897509;29;20692;-65
2023/10/19 11:12:22;;;;;;;3.83;2.13;;;;;;;4.88;94.18;101273.84;4896446;29;20186;-67
2023/10/19 11:14:53;;;;;;;3.53;1.63;;;;;;;4.83;89.93;101276.00;4896335;29;20273;-66
2023/10/19 11:17:23;;;;;;;1.83;1.50;;;;;;;4.66;90.91;101266.69;4897226;29;20040;-69
2023/10/19 11:19:49;;;;;;;4.50;1.80;;;;;;;4.78;92.58;101270.22;4897446;29;20675;-67
2023/10/19 11:22:15;;;;;;;2.87;1.93;;;;;;;4.77;93.85;101256.19;4896049;29;20281;-68
2023/10/19 11:24:40;;;;;;;3.87;2.10;;;;;;;4.95;93.42;101265.41;4896025;29;20305;-65
2023/10/19 11:27:11;;;;;;;2.07;1.87;;;;;;;4.76;93.14;101232.56;4897220;29;20037;-68
2023/10/19 11:29:38;;;;;;;1.83;1.63;;;;;;;4.93;93.38;101261.19;4897335;29;20123;-65
2023/10/19 11:32:04;;;;;;;1.90;1.70;;;;;;;4.97;93.27;101276.69;4896960;29;20783;-66
2023/10/19 11:34:30;;;;;;;3.53;1.87;;;;;;;5.02;93.91;101271.06;4897024;29;20710;-67
2023/10/19 11:37:04;;;;;;;1.90;1.80;;;;;;;4.90;92.74;101246.41;4897258;29;20311;-63
2023/10/19 11:39:30;;;;;;;1.57;1.47;;;;;;;4.96;91.81;101272.34;4897100;29;20080;-67
2023/10/19 11:41:56;;;;;;;2.83;1.63;;;;;;;4.89;91.13;101272.91;4897177;29;20367;-68
2023/10/19 11:44:22;;;;;;;1.27;1.17;;;;;;;4.55;89.19;101238.44;4896239;29;20361;-66
2023/10/19 11:46:48;;;;;;;3.50;1.90;;;;;;;4.60;91.07;101265.31;4895552;29;20044;-67
2023/10/19 11:49:13;;;;;;;3.00;1.20;;;;;;;4.54;91.03;101271.06;4896021;29;20277;-68
2023/10/19 11:51:39;;;;;;;1.77;1.30;;;;;;;4.56;91.63;101263.88;4896028;29;20638;-68
2023/10/19 11:54:06;;;;;;;6.17;1.67;;;;;;;4.47;91.99;101251.38;4895722;29;20040;-68
2023/10/19 11:56:31;;;;;;;2.23;2.03;;;;;;;4.67;92.58;101281.56;4897289;29;20108;-69
2023/10/19 11:58:57;;;;;;;3.97;1.40;;;;;;;4.62;93.69;101275.78;4912977;29;20292;-67
2023/10/19 12:01:24;;;;;;;1.63;1.30;;;;;;;4.27;94.67;101231.69;4914040;29;20052;-68
2023/10/19 12:03:51;;;;;;;2.37;1.73;;;;;;;4.39;95.27;101261.63;4915281;29;20139;-65